sensor_id;sensor_type;location;lat;lon;timestamp;P1;durP1;ratioP1;P2;durP2;ratioP2
32533;SDS011;18973;48.580;8.912;2023-08-12T00:00:08;7.20;;;4.65;;
32533;SDS011;18973;48.580;8.912;2023-08-12T00:02:42;8.35;;;4.90;;
32533;SDS011;18973;48.580;8.912;2023-08-12T00:05:09;8.40;;;5.47;;
32533;SDS011;18973;48.580;8.912;2023-08-12T00:07:36;11.63;;;5.20;;
32533;SDS011;18973;48.580;8.912;2023-08-12T00:10:02;9.32;;;5.72;;
32533;SDS011;18973;48.580;8.912;2023-08-12T00:12:30;10.02;;;4.97;;
32533;SDS011;18973;48.580;8.912;2023-08-12T00:14:57;5.53;;;4.30;;
32533;SDS011;18973;48.580;8.912;2023-08-12T00:17:23;7.90;;;5.00;;
32533;SDS011;18973;48.580;8.912;2023-08-12T00:19:49;6.13;;;4.25;;
32533;SDS011;18973;48.580;8.912;2023-08-12T00:22:15;8.02;;;4.78;;
32533;SDS011;18973;48.580;8.912;2023-08-12T00:24:40;8.10;;;4.82;;
32533;SDS011;18973;48.580;8.912;2023-08-12T00:27:06;5.88;;;4.90;;
32533;SDS011;18973;48.580;8.912;2023-08-12T00:29:33;7.53;;;5.00;;
32533;SDS011;18973;48.580;8.912;2023-08-12T00:32:00;7.53;;;4.97;;
32533;SDS011;18973;48.580;8.912;2023-08-12T00:34:26;6.65;;;4.95;;
32533;SDS011;18973;48.580;8.912;2023-08-12T00:36:51;9.02;;;5.00;;
32533;SDS011;18973;48.580;8.912;2023-08-12T00:39:17;7.57;;;5.50;;
32533;SDS011;18973;48.580;8.912;2023-08-12T00:41:43;5.50;;;4.90;;
32533;SDS011;18973;48.580;8.912;2023-08-12T00:44:08;5.65;;;4.95;;
32533;SDS011;18973;48.580;8.912;2023-08-12T00:46:34;8.27;;;5.43;;
32533;SDS011;18973;48.580;8.912;2023-08-12T00:49:01;8.23;;;4.68;;
32533;SDS011;18973;48.580;8.912;2023-08-12T00:51:27;7.07;;;5.28;;
32533;SDS011;18973;48.580;8.912;2023-08-12T00:53:53;10.02;;;5.53;;
32533;SDS011;18973;48.580;8.912;2023-08-12T00:56:22;9.95;;;6.10;;
32533;SDS011;18973;48.580;8.912;2023-08-12T00:58:48;8.82;;;5.28;;
32533;SDS011;18973;48.580;8.912;2023-08-12T01:01:14;10.65;;;5.10;;
32533;SDS011;18973;48.580;8.912;2023-08-12T01:03:42;12.70;;;5.30;;
32533;SDS011;18973;48.580;8.912;2023-08-12T01:06:08;7.10;;;5.22;;
32533;SDS011;18973;48.580;8.912;2023-08-12T01:08:34;8.57;;;5.15;;
32533;SDS011;18973;48.580;8.912;2023-08-12T01:11:14;5.60;;;4.53;;
32533;SDS011;18973;48.580;8.912;2023-08-12T01:13:55;5.85;;;4.50;;
32533;SDS011;18973;48.580;8.912;2023-08-12T01:16:30;9.43;;;5.88;;
32533;SDS011;18973;48.580;8.912;2023-08-12T01:18:59;8.30;;;4.90;;
32533;SDS011;18973;48.580;8.912;2023-08-12T01:21:26;6.93;;;5.25;;
32533;SDS011;18973;48.580;8.912;2023-08-12T01:23:54;7.28;;;4.72;;
32533;SDS011;18973;48.580;8.912;2023-08-12T01:26:20;6.13;;;5.07;;
32533;SDS011;18973;48.580;8.912;2023-08-12T01:28:46;8.18;;;5.10;;
32533;SDS011;18973;48.580;8.912;2023-08-12T01:31:18;10.75;;;5.43;;
32533;SDS011;18973;48.580;8.912;2023-08-12T01:34:15;6.88;;;4.80;;
32533;SDS011;18973;48.580;8.912;2023-08-12T01:36:49;7.50;;;5.35;;
32533;SDS011;18973;48.580;8.912;2023-08-12T01:39:20;11.40;;;6.20;;
32533;SDS011;18973;48.580;8.912;2023-08-12T01:41:46;5.75;;;4.63;;
32533;SDS011;18973;48.580;8.912;2023-08-12T01:44:12;6.93;;;5.25;;
32533;SDS011;18973;48.580;8.912;2023-08-12T01:46:38;8.40;;;5.55;;
32533;SDS011;18973;48.580;8.912;2023-08-12T01:49:03;7.40;;;5.18;;
32533;SDS011;18973;48.580;8.912;2023-08-12T01:51:29;9.93;;;5.25;;
32533;SDS011;18973;48.580;8.912;2023-08-12T01:53:55;5.65;;;5.15;;
32533;SDS011;18973;48.580;8.912;2023-08-12T01:56:20;8.77;;;4.93;;
32533;SDS011;18973;48.580;8.912;2023-08-12T01:58:46;13.40;;;4.53;;
32533;SDS011;18973;48.580;8.912;2023-08-12T02:01:12;7.63;;;4.85;;
32533;SDS011;18973;48.580;8.912;2023-08-12T02:03:37;9.38;;;5.88;;
32533;SDS011;18973;48.580;8.912;2023-08-12T02:06:04;8.13;;;5.85;;
32533;SDS011;18973;48.580;8.912;2023-08-12T02:08:29;6.82;;;5.07;;
32533;SDS011;18973;48.580;8.912;2023-08-12T02:10:55;6.32;;;4.97;;
32533;SDS011;18973;48.580;8.912;2023-08-12T02:13:21;6.65;;;4.97;;
32533;SDS011;18973;48.580;8.912;2023-08-12T02:15:46;7.53;;;5.30;;
32533;SDS011;18973;48.580;8.912;2023-08-12T02:18:12;6.18;;;5.05;;
32533;SDS011;18973;48.580;8.912;2023-08-12T02:20:39;7.63;;;5.50;;
32533;SDS011;18973;48.580;8.912;2023-08-12T02:23:06;9.20;;;5.18;;
32533;SDS011;18973;48.580;8.912;2023-08-12T02:25:31;8.23;;;5.65;;
32533;SDS011;18973;48.580;8.912;2023-08-12T02:27:57;7.18;;;5.60;;
32533;SDS011;18973;48.580;8.912;2023-08-12T02:30:23;9.77;;;5.15;;
32533;SDS011;18973;48.580;8.912;2023-08-12T02:32:50;7.10;;;5.30;;
32533;SDS011;18973;48.580;8.912;2023-08-12T02:35:17;9.05;;;5.35;;
32533;SDS011;18973;48.580;8.912;2023-08-12T02:37:43;7.13;;;5.18;;
32533;SDS011;18973;48.580;8.912;2023-08-12T02:40:09;7.35;;;5.68;;
32533;SDS011;18973;48.580;8.912;2023-08-12T02:42:35;5.82;;;5.20;;
32533;SDS011;18973;48.580;8.912;2023-08-12T02:45:01;7.95;;;5.55;;
32533;SDS011;18973;48.580;8.912;2023-08-12T02:47:27;7.60;;;5.20;;
32533;SDS011;18973;48.580;8.912;2023-08-12T02:49:53;4.82;;;4.22;;
32533;SDS011;18973;48.580;8.912;2023-08-12T02:52:19;8.95;;;5.72;;
32533;SDS011;18973;48.580;8.912;2023-08-12T02:54:44;6.45;;;5.32;;
32533;SDS011;18973;48.580;8.912;2023-08-12T02:57:10;7.60;;;5.10;;
32533;SDS011;18973;48.580;8.912;2023-08-12T02:59:36;6.18;;;4.95;;
32533;SDS011;18973;48.580;8.912;2023-08-12T03:02:01;7.97;;;5.68;;
32533;SDS011;18973;48.580;8.912;2023-08-12T03:04:28;7.68;;;5.80;;
32533;SDS011;18973;48.580;8.912;2023-08-12T03:06:54;9.32;;;6.25;;
32533;SDS011;18973;48.580;8.912;2023-08-12T03:09:19;10.15;;;5.50;;
32533;SDS011;18973;48.580;8.912;2023-08-12T03:11:45;6.72;;;5.18;;
32533;SDS011;18973;48.580;8.912;2023-08-12T03:14:11;7.68;;;6.38;;
32533;SDS011;18973;48.580;8.912;2023-08-12T03:16:37;8.02;;;5.15;;
32533;SDS011;18973;48.580;8.912;2023-08-12T03:19:02;9.05;;;5.15;;
32533;SDS011;18973;48.580;8.912;2023-08-12T03:21:28;9.80;;;5.20;;
32533;SDS011;18973;48.580;8.912;2023-08-12T03:23:54;6.38;;;4.75;;
32533;SDS011;18973;48.580;8.912;2023-08-12T03:26:19;8.18;;;5.22;;
32533;SDS011;18973;48.580;8.912;2023-08-12T03:28:45;11.02;;;5.30;;
32533;SDS011;18973;48.580;8.912;2023-08-12T03:31:11;11.55;;;5.70;;
32533;SDS011;18973;48.580;8.912;2023-08-12T03:33:37;10.45;;;4.65;;
32533;SDS011;18973;48.580;8.912;2023-08-12T03:36:02;6.55;;;5.10;;
32533;SDS011;18973;48.580;8.912;2023-08-12T03:38:28;7.05;;;4.85;;
32533;SDS011;18973;48.580;8.912;2023-08-12T03:40:54;7.18;;;5.45;;
32533;SDS011;18973;48.580;8.912;2023-08-12T03:43:20;8.60;;;5.28;;
32533;SDS011;18973;48.580;8.912;2023-08-12T03:45:45;7.38;;;5.30;;
32533;SDS011;18973;48.580;8.912;2023-08-12T03:48:12;7.68;;;5.15;;
32533;SDS011;18973;48.580;8.912;2023-08-12T03:50:38;9.10;;;4.88;;
32533;SDS011;18973;48.580;8.912;2023-08-12T03:53:04;7.53;;;5.35;;
32533;SDS011;18973;48.580;8.912;2023-08-12T03:55:31;7.47;;;5.15;;
32533;SDS011;18973;48.580;8.912;2023-08-12T03:57:58;5.38;;;4.88;;
32533;SDS011;18973;48.580;8.912;2023-08-12T04:00:24;6.40;;;5.00;;
32533;SDS011;18973;48.580;8.912;2023-08-12T04:02:50;10.25;;;4.90;;
32533;SDS011;18973;48.580;8.912;2023-08-12T04:05:16;6.45;;;5.22;;
32533;SDS011;18973;48.580;8.912;2023-08-12T04:07:42;8.10;;;5.32;;
32533;SDS011;18973;48.580;8.912;2023-08-12T04:10:08;7.32;;;5.25;;
32533;SDS011;18973;48.580;8.912;2023-08-12T04:12:34;9.68;;;5.13;;
32533;SDS011;18973;48.580;8.912;2023-08-12T04:15:00;7.85;;;4.80;;
32533;SDS011;18973;48.580;8.912;2023-08-12T04:17:29;5.60;;;4.82;;
32533;SDS011;18973;48.580;8.912;2023-08-12T04:19:54;10.77;;;4.78;;
32533;SDS011;18973;48.580;8.912;2023-08-12T04:22:20;7.45;;;5.00;;
32533;SDS011;18973;48.580;8.912;2023-08-12T04:24:46;11.50;;;4.97;;
32533;SDS011;18973;48.580;8.912;2023-08-12T04:27:11;9.65;;;5.28;;
32533;SDS011;18973;48.580;8.912;2023-08-12T04:29:37;9.02;;;4.88;;
32533;SDS011;18973;48.580;8.912;2023-08-12T04:32:03;8.38;;;4.68;;
32533;SDS011;18973;48.580;8.912;2023-08-12T04:34:28;5.82;;;4.40;;
32533;SDS011;18973;48.580;8.912;2023-08-12T04:36:54;5.65;;;4.00;;
32533;SDS011;18973;48.580;8.912;2023-08-12T04:39:20;8.43;;;4.72;;
32533;SDS011;18973;48.580;8.912;2023-08-12T04:41:47;6.70;;;4.65;;
32533;SDS011;18973;48.580;8.912;2023-08-12T04:44:13;6.60;;;4.30;;
32533;SDS011;18973;48.580;8.912;2023-08-12T04:46:39;5.88;;;4.55;;
32533;SDS011;18973;48.580;8.912;2023-08-12T04:49:04;7.65;;;4.57;;
32533;SDS011;18973;48.580;8.912;2023-08-12T04:51:30;6.57;;;5.30;;
32533;SDS011;18973;48.580;8.912;2023-08-12T04:53:56;8.80;;;5.05;;
32533;SDS011;18973;48.580;8.912;2023-08-12T04:56:23;7.68;;;4.57;;
32533;SDS011;18973;48.580;8.912;2023-08-12T04:58:49;7.88;;;4.70;;
32533;SDS011;18973;48.580;8.912;2023-08-12T05:01:15;5.75;;;4.30;;
32533;SDS011;18973;48.580;8.912;2023-08-12T05:03:40;7.15;;;4.25;;
32533;SDS011;18973;48.580;8.912;2023-08-12T05:06:06;6.60;;;4.32;;
32533;SDS011;18973;48.580;8.912;2023-08-12T05:08:32;6.10;;;4.53;;
32533;SDS011;18973;48.580;8.912;2023-08-12T05:10:57;10.88;;;5.40;;
32533;SDS011;18973;48.580;8.912;2023-08-12T05:13:23;8.32;;;4.47;;
32533;SDS011;18973;48.580;8.912;2023-08-12T05:15:49;6.60;;;4.22;;
32533;SDS011;18973;48.580;8.912;2023-08-12T05:18:15;8.93;;;4.57;;
32533;SDS011;18973;48.580;8.912;2023-08-12T05:20:41;8.65;;;5.10;;
32533;SDS011;18973;48.580;8.912;2023-08-12T05:23:07;8.32;;;4.55;;
32533;SDS011;18973;48.580;8.912;2023-08-12T05:25:34;8.15;;;4.00;;
32533;SDS011;18973;48.580;8.912;2023-08-12T05:28:00;7.05;;;4.95;;
32533;SDS011;18973;48.580;8.912;2023-08-12T05:30:26;7.18;;;5.43;;
32533;SDS011;18973;48.580;8.912;2023-08-12T05:32:51;8.32;;;4.82;;
32533;SDS011;18973;48.580;8.912;2023-08-12T05:35:17;7.85;;;4.68;;
32533;SDS011;18973;48.580;8.912;2023-08-12T05:37:43;5.60;;;4.60;;
32533;SDS011;18973;48.580;8.912;2023-08-12T05:40:09;6.78;;;4.90;;
32533;SDS011;18973;48.580;8.912;2023-08-12T05:42:35;6.70;;;4.93;;
32533;SDS011;18973;48.580;8.912;2023-08-12T05:45:01;6.15;;;5.10;;
32533;SDS011;18973;48.580;8.912;2023-08-12T05:47:28;5.53;;;4.43;;
32533;SDS011;18973;48.580;8.912;2023-08-12T05:49:54;7.40;;;5.45;;
32533;SDS011;18973;48.580;8.912;2023-08-12T05:52:19;10.50;;;4.70;;
32533;SDS011;18973;48.580;8.912;2023-08-12T05:54:45;12.13;;;5.10;;
32533;SDS011;18973;48.580;8.912;2023-08-12T05:57:10;7.05;;;4.95;;
32533;SDS011;18973;48.580;8.912;2023-08-12T05:59:36;8.15;;;5.00;;
32533;SDS011;18973;48.580;8.912;2023-08-12T06:02:02;5.80;;;5.00;;
32533;SDS011;18973;48.580;8.912;2023-08-12T06:04:28;8.13;;;5.18;;
32533;SDS011;18973;48.580;8.912;2023-08-12T06:06:54;7.60;;;5.00;;
32533;SDS011;18973;48.580;8.912;2023-08-12T06:09:20;6.43;;;4.53;;
32533;SDS011;18973;48.580;8.912;2023-08-12T06:11:46;7.43;;;4.97;;
32533;SDS011;18973;48.580;8.912;2023-08-12T06:14:12;7.22;;;5.13;;
32533;SDS011;18973;48.580;8.912;2023-08-12T06:16:38;9.82;;;5.28;;
32533;SDS011;18973;48.580;8.912;2023-08-12T06:19:03;6.55;;;4.60;;
32533;SDS011;18973;48.580;8.912;2023-08-12T06:21:29;9.85;;;5.35;;
32533;SDS011;18973;48.580;8.912;2023-08-12T06:23:55;6.97;;;4.55;;
32533;SDS011;18973;48.580;8.912;2023-08-12T06:26:21;7.10;;;4.93;;
32533;SDS011;18973;48.580;8.912;2023-08-12T06:28:46;10.25;;;5.20;;
32533;SDS011;18973;48.580;8.912;2023-08-12T06:31:12;7.30;;;4.25;;
32533;SDS011;18973;48.580;8.912;2023-08-12T06:33:38;10.23;;;4.32;;
32533;SDS011;18973;48.580;8.912;2023-08-12T06:36:04;13.57;;;4.95;;
32533;SDS011;18973;48.580;8.912;2023-08-12T06:38:30;8.30;;;4.78;;
32533;SDS011;18973;48.580;8.912;2023-08-12T06:40:56;5.55;;;4.43;;
32533;SDS011;18973;48.580;8.912;2023-08-12T06:43:22;12.02;;;4.63;;
32533;SDS011;18973;48.580;8.912;2023-08-12T06:45:47;10.80;;;5.47;;
32533;SDS011;18973;48.580;8.912;2023-08-12T06:48:13;6.43;;;4.68;;
32533;SDS011;18973;48.580;8.912;2023-08-12T06:50:38;5.00;;;4.10;;
32533;SDS011;18973;48.580;8.912;2023-08-12T06:53:04;8.55;;;4.53;;
32533;SDS011;18973;48.580;8.912;2023-08-12T06:55:30;8.68;;;4.18;;
32533;SDS011;18973;48.580;8.912;2023-08-12T06:57:56;6.07;;;5.03;;
32533;SDS011;18973;48.580;8.912;2023-08-12T07:00:21;6.50;;;3.83;;
32533;SDS011;18973;48.580;8.912;2023-08-12T07:02:47;9.10;;;4.22;;
32533;SDS011;18973;48.580;8.912;2023-08-12T07:05:13;5.03;;;4.53;;
32533;SDS011;18973;48.580;8.912;2023-08-12T07:07:38;6.63;;;3.70;;
32533;SDS011;18973;48.580;8.912;2023-08-12T07:10:04;6.95;;;4.40;;
32533;SDS011;18973;48.580;8.912;2023-08-12T07:12:31;6.75;;;3.90;;
32533;SDS011;18973;48.580;8.912;2023-08-12T07:14:58;6.63;;;4.32;;
32533;SDS011;18973;48.580;8.912;2023-08-12T07:17:23;6.65;;;4.55;;
32533;SDS011;18973;48.580;8.912;2023-08-12T07:19:49;7.05;;;4.43;;
32533;SDS011;18973;48.580;8.912;2023-08-12T07:22:15;8.43;;;4.43;;
32533;SDS011;18973;48.580;8.912;2023-08-12T07:24:44;6.50;;;4.70;;
32533;SDS011;18973;48.580;8.912;2023-08-12T07:27:10;5.75;;;3.90;;
32533;SDS011;18973;48.580;8.912;2023-08-12T07:29:35;5.97;;;4.50;;
32533;SDS011;18973;48.580;8.912;2023-08-12T07:32:01;6.35;;;4.43;;
32533;SDS011;18973;48.580;8.912;2023-08-12T07:34:27;10.45;;;4.43;;
32533;SDS011;18973;48.580;8.912;2023-08-12T07:36:53;8.05;;;3.83;;
32533;SDS011;18973;48.580;8.912;2023-08-12T07:39:18;6.10;;;4.10;;
32533;SDS011;18973;48.580;8.912;2023-08-12T07:41:44;7.65;;;3.90;;
32533;SDS011;18973;48.580;8.912;2023-08-12T07:44:10;7.47;;;3.83;;
32533;SDS011;18973;48.580;8.912;2023-08-12T07:46:35;10.70;;;4.60;;
32533;SDS011;18973;48.580;8.912;2023-08-12T07:49:01;7.28;;;4.18;;
32533;SDS011;18973;48.580;8.912;2023-08-12T07:51:27;7.55;;;4.65;;
32533;SDS011;18973;48.580;8.912;2023-08-12T07:53:52;4.50;;;3.40;;
32533;SDS011;18973;48.580;8.912;2023-08-12T07:56:18;5.80;;;4.00;;
32533;SDS011;18973;48.580;8.912;2023-08-12T07:58:44;8.95;;;3.42;;
32533;SDS011;18973;48.580;8.912;2023-08-12T08:01:10;9.57;;;3.78;;
32533;SDS011;18973;48.580;8.912;2023-08-12T08:03:36;5.60;;;4.20;;
32533;SDS011;18973;48.580;8.912;2023-08-12T08:06:02;7.35;;;4.75;;
32533;SDS011;18973;48.580;8.912;2023-08-12T08:08:28;8.75;;;3.85;;
32533;SDS011;18973;48.580;8.912;2023-08-12T08:10:53;7.07;;;4.45;;
32533;SDS011;18973;48.580;8.912;2023-08-12T08:13:19;6.88;;;4.28;;
32533;SDS011;18973;48.580;8.912;2023-08-12T08:15:45;11.48;;;3.45;;
32533;SDS011;18973;48.580;8.912;2023-08-12T08:18:11;7.68;;;3.75;;
32533;SDS011;18973;48.580;8.912;2023-08-12T08:20:36;8.05;;;4.03;;
32533;SDS011;18973;48.580;8.912;2023-08-12T08:23:02;6.88;;;4.05;;
32533;SDS011;18973;48.580;8.912;2023-08-12T08:25:28;6.57;;;3.50;;
32533;SDS011;18973;48.580;8.912;2023-08-12T08:27:54;5.57;;;3.70;;
32533;SDS011;18973;48.580;8.912;2023-08-12T08:30:20;12.52;;;3.95;;
32533;SDS011;18973;48.580;8.912;2023-08-12T08:32:47;7.70;;;4.00;;
32533;SDS011;18973;48.580;8.912;2023-08-12T08:35:13;6.03;;;3.67;;
32533;SDS011;18973;48.580;8.912;2023-08-12T08:37:40;7.18;;;3.72;;
32533;SDS011;18973;48.580;8.912;2023-08-12T08:40:06;8.98;;;3.92;;
32533;SDS011;18973;48.580;8.912;2023-08-12T08:42:33;5.00;;;3.53;;
32533;SDS011;18973;48.580;8.912;2023-08-12T08:45:00;10.90;;;4.25;;
32533;SDS011;18973;48.580;8.912;2023-08-12T08:47:29;4.63;;;3.00;;
32533;SDS011;18973;48.580;8.912;2023-08-12T08:49:56;4.05;;;3.25;;
32533;SDS011;18973;48.580;8.912;2023-08-12T08:52:25;3.35;;;2.90;;
32533;SDS011;18973;48.580;8.912;2023-08-12T08:54:52;6.38;;;3.13;;
32533;SDS011;18973;48.580;8.912;2023-08-12T08:57:18;7.18;;;3.33;;
32533;SDS011;18973;48.580;8.912;2023-08-12T08:59:44;4.22;;;3.30;;
32533;SDS011;18973;48.580;8.912;2023-08-12T09:02:12;5.65;;;3.08;;
32533;SDS011;18973;48.580;8.912;2023-08-12T09:04:43;4.10;;;3.70;;
32533;SDS011;18973;48.580;8.912;2023-08-12T09:07:11;4.78;;;3.42;;
32533;SDS011;18973;48.580;8.912;2023-08-12T09:09:39;11.63;;;3.35;;
32533;SDS011;18973;48.580;8.912;2023-08-12T09:12:09;6.72;;;2.85;;
32533;SDS011;18973;48.580;8.912;2023-08-12T09:14:38;2.80;;;2.40;;
32533;SDS011;18973;48.580;8.912;2023-08-12T09:17:04;4.10;;;2.47;;
32533;SDS011;18973;48.580;8.912;2023-08-12T09:19:31;6.45;;;2.60;;
32533;SDS011;18973;48.580;8.912;2023-08-12T09:21:56;4.32;;;2.40;;
32533;SDS011;18973;48.580;8.912;2023-08-12T09:24:26;3.38;;;2.05;;
32533;SDS011;18973;48.580;8.912;2023-08-12T09:26:53;3.72;;;2.38;;
32533;SDS011;18973;48.580;8.912;2023-08-12T09:29:23;7.22;;;2.55;;
32533;SDS011;18973;48.580;8.912;2023-08-12T09:32:12;4.95;;;2.92;;
32533;SDS011;18973;48.580;8.912;2023-08-12T09:35:00;3.75;;;2.47;;
32533;SDS011;18973;48.580;8.912;2023-08-12T09:37:31;4.05;;;2.75;;
32533;SDS011;18973;48.580;8.912;2023-08-12T09:39:57;5.57;;;3.00;;
32533;SDS011;18973;48.580;8.912;2023-08-12T09:42:23;3.72;;;2.75;;
32533;SDS011;18973;48.580;8.912;2023-08-12T09:44:49;6.57;;;2.80;;
32533;SDS011;18973;48.580;8.912;2023-08-12T09:47:14;4.15;;;3.00;;
32533;SDS011;18973;48.580;8.912;2023-08-12T09:49:40;4.82;;;3.08;;
32533;SDS011;18973;48.580;8.912;2023-08-12T09:52:06;3.10;;;2.33;;
32533;SDS011;18973;48.580;8.912;2023-08-12T09:54:33;6.97;;;2.65;;
32533;SDS011;18973;48.580;8.912;2023-08-12T09:57:00;6.70;;;2.60;;
32533;SDS011;18973;48.580;8.912;2023-08-12T09:59:31;4.18;;;2.47;;
32533;SDS011;18973;48.580;8.912;2023-08-12T10:02:06;6.22;;;2.50;;
32533;SDS011;18973;48.580;8.912;2023-08-12T10:04:41;5.20;;;2.88;;
32533;SDS011;18973;48.580;8.912;2023-08-12T10:07:10;12.18;;;2.80;;
32533;SDS011;18973;48.580;8.912;2023-08-12T10:09:42;5.85;;;2.70;;
32533;SDS011;18973;48.580;8.912;2023-08-12T10:12:09;2.78;;;2.20;;
32533;SDS011;18973;48.580;8.912;2023-08-12T10:14:36;2.58;;;2.22;;
32533;SDS011;18973;48.580;8.912;2023-08-12T10:17:03;4.03;;;2.88;;
32533;SDS011;18973;48.580;8.912;2023-08-12T10:19:30;2.88;;;2.45;;
32533;SDS011;18973;48.580;8.912;2023-08-12T10:21:56;3.55;;;3.03;;
32533;SDS011;18973;48.580;8.912;2023-08-12T10:24:27;7.35;;;2.60;;
32533;SDS011;18973;48.580;8.912;2023-08-12T10:26:53;4.07;;;2.55;;
32533;SDS011;18973;48.580;8.912;2023-08-12T10:29:19;5.90;;;2.97;;
32533;SDS011;18973;48.580;8.912;2023-08-12T12:25:59;10.25;;;3.05;;
32533;SDS011;18973;48.580;8.912;2023-08-12T12:28:28;9.13;;;2.75;;
32533;SDS011;18973;48.580;8.912;2023-08-12T12:30:54;5.57;;;2.70;;
32533;SDS011;18973;48.580;8.912;2023-08-12T12:33:20;9.65;;;2.83;;
32533;SDS011;18973;48.580;8.912;2023-08-12T12:35:45;8.23;;;3.45;;
32533;SDS011;18973;48.580;8.912;2023-08-12T12:38:11;8.27;;;2.80;;
32533;SDS011;18973;48.580;8.912;2023-08-12T12:40:37;6.13;;;2.45;;
32533;SDS011;18973;48.580;8.912;2023-08-12T12:43:05;7.20;;;2.85;;
32533;SDS011;18973;48.580;8.912;2023-08-12T12:45:31;5.20;;;2.80;;
32533;SDS011;18973;48.580;8.912;2023-08-12T12:47:56;5.25;;;3.10;;
32533;SDS011;18973;48.580;8.912;2023-08-12T12:50:22;6.63;;;2.90;;
32533;SDS011;18973;48.580;8.912;2023-08-12T12:52:48;9.10;;;3.08;;
32533;SDS011;18973;48.580;8.912;2023-08-12T12:55:13;6.93;;;3.40;;
32533;SDS011;18973;48.580;8.912;2023-08-12T12:57:39;3.58;;;2.17;;
32533;SDS011;18973;48.580;8.912;2023-08-12T13:00:05;5.38;;;2.75;;
32533;SDS011;18973;48.580;8.912;2023-08-12T13:02:35;5.65;;;2.42;;
32533;SDS011;18973;48.580;8.912;2023-08-12T13:05:01;11.93;;;3.72;;
32533;SDS011;18973;48.580;8.912;2023-08-12T13:07:26;7.03;;;3.08;;
32533;SDS011;18973;48.580;8.912;2023-08-12T13:09:52;5.72;;;2.90;;
32533;SDS011;18973;48.580;8.912;2023-08-12T13:12:18;3.30;;;2.47;;
32533;SDS011;18973;48.580;8.912;2023-08-12T13:14:43;6.63;;;3.28;;
32533;SDS011;18973;48.580;8.912;2023-08-12T13:17:09;4.13;;;2.38;;
32533;SDS011;18973;48.580;8.912;2023-08-12T13:19:35;6.40;;;2.92;;
32533;SDS011;18973;48.580;8.912;2023-08-12T13:22:00;5.50;;;2.70;;
32533;SDS011;18973;48.580;8.912;2023-08-12T13:24:27;5.90;;;2.95;;
32533;SDS011;18973;48.580;8.912;2023-08-12T13:26:53;5.38;;;2.30;;
32533;SDS011;18973;48.580;8.912;2023-08-12T13:29:19;7.90;;;1.98;;
32533;SDS011;18973;48.580;8.912;2023-08-12T13:31:45;3.33;;;1.95;;
32533;SDS011;18973;48.580;8.912;2023-08-12T13:34:11;2.47;;;1.70;;
32533;SDS011;18973;48.580;8.912;2023-08-12T13:36:37;5.95;;;2.05;;
32533;SDS011;18973;48.580;8.912;2023-08-12T13:39:02;4.43;;;2.20;;
32533;SDS011;18973;48.580;8.912;2023-08-12T13:41:28;2.90;;;1.90;;
32533;SDS011;18973;48.580;8.912;2023-08-12T13:43:54;4.22;;;1.85;;
32533;SDS011;18973;48.580;8.912;2023-08-12T13:46:19;2.90;;;1.27;;
32533;SDS011;18973;48.580;8.912;2023-08-12T13:48:45;3.38;;;1.75;;
32533;SDS011;18973;48.580;8.912;2023-08-12T13:51:11;3.20;;;1.50;;
32533;SDS011;18973;48.580;8.912;2023-08-12T13:53:36;4.13;;;1.42;;
32533;SDS011;18973;48.580;8.912;2023-08-12T13:56:02;5.68;;;1.85;;
32533;SDS011;18973;48.580;8.912;2023-08-12T13:58:28;1.90;;;1.30;;
32533;SDS011;18973;48.580;8.912;2023-08-12T14:00:54;1.70;;;1.08;;
32533;SDS011;18973;48.580;8.912;2023-08-12T14:03:20;2.95;;;1.85;;
32533;SDS011;18973;48.580;8.912;2023-08-12T14:05:46;4.15;;;1.55;;
32533;SDS011;18973;48.580;8.912;2023-08-12T14:08:11;3.25;;;1.60;;
32533;SDS011;18973;48.580;8.912;2023-08-12T14:10:37;2.95;;;1.48;;
32533;SDS011;18973;48.580;8.912;2023-08-12T14:13:03;2.03;;;1.30;;
32533;SDS011;18973;48.580;8.912;2023-08-12T14:15:29;2.80;;;1.35;;
32533;SDS011;18973;48.580;8.912;2023-08-12T14:17:54;4.80;;;1.20;;
32533;SDS011;18973;48.580;8.912;2023-08-12T14:20:20;3.58;;;1.30;;
32533;SDS011;18973;48.580;8.912;2023-08-12T14:22:46;2.67;;;1.27;;
32533;SDS011;18973;48.580;8.912;2023-08-12T14:25:11;9.82;;;2.17;;
32533;SDS011;18973;48.580;8.912;2023-08-12T14:27:37;3.50;;;1.30;;
32533;SDS011;18973;48.580;8.912;2023-08-12T14:30:03;2.85;;;1.40;;
32533;SDS011;18973;48.580;8.912;2023-08-12T14:32:29;1.98;;;1.30;;
32533;SDS011;18973;48.580;8.912;2023-08-12T14:34:55;1.85;;;1.10;;
32533;SDS011;18973;48.580;8.912;2023-08-12T14:37:21;1.52;;;1.00;;
32533;SDS011;18973;48.580;8.912;2023-08-12T14:39:46;3.10;;;1.40;;
32533;SDS011;18973;48.580;8.912;2023-08-12T14:42:12;3.25;;;1.27;;
32533;SDS011;18973;48.580;8.912;2023-08-12T14:44:38;1.70;;;1.27;;
32533;SDS011;18973;48.580;8.912;2023-08-12T14:47:04;2.85;;;1.45;;
32533;SDS011;18973;48.580;8.912;2023-08-12T14:49:29;3.42;;;1.70;;
32533;SDS011;18973;48.580;8.912;2023-08-12T14:51:55;2.20;;;1.60;;
32533;SDS011;18973;48.580;8.912;2023-08-12T14:54:21;2.55;;;1.52;;
32533;SDS011;18973;48.580;8.912;2023-08-12T14:56:47;2.00;;;1.65;;
32533;SDS011;18973;48.580;8.912;2023-08-12T14:59:13;3.58;;;1.85;;
32533;SDS011;18973;48.580;8.912;2023-08-12T15:01:39;5.32;;;2.42;;
32533;SDS011;18973;48.580;8.912;2023-08-12T15:04:04;2.97;;;2.35;;
32533;SDS011;18973;48.580;8.912;2023-08-12T15:06:30;2.45;;;2.25;;
32533;SDS011;18973;48.580;8.912;2023-08-12T15:08:56;3.55;;;2.00;;
32533;SDS011;18973;48.580;8.912;2023-08-12T15:11:22;2.72;;;2.03;;
32533;SDS011;18973;48.580;8.912;2023-08-12T15:13:48;4.32;;;2.00;;
32533;SDS011;18973;48.580;8.912;2023-08-12T15:16:14;2.83;;;1.90;;
32533;SDS011;18973;48.580;8.912;2023-08-12T15:18:40;5.72;;;2.80;;
32533;SDS011;18973;48.580;8.912;2023-08-12T15:21:07;6.28;;;2.17;;
32533;SDS011;18973;48.580;8.912;2023-08-12T15:23:33;2.65;;;1.83;;
32533;SDS011;18973;48.580;8.912;2023-08-12T15:26:00;3.70;;;2.63;;
32533;SDS011;18973;48.580;8.912;2023-08-12T15:28:29;4.05;;;2.33;;
32533;SDS011;18973;48.580;8.912;2023-08-12T15:30:55;4.90;;;2.58;;
32533;SDS011;18973;48.580;8.912;2023-08-12T15:33:21;2.67;;;2.10;;
32533;SDS011;18973;48.580;8.912;2023-08-12T15:35:47;4.20;;;2.30;;
32533;SDS011;18973;48.580;8.912;2023-08-12T15:38:14;3.78;;;2.55;;
32533;SDS011;18973;48.580;8.912;2023-08-12T15:40:39;5.72;;;2.53;;
32533;SDS011;18973;48.580;8.912;2023-08-12T15:43:05;7.03;;;2.47;;
32533;SDS011;18973;48.580;8.912;2023-08-12T15:45:31;4.22;;;2.50;;
32533;SDS011;18973;48.580;8.912;2023-08-12T15:47:57;5.72;;;2.20;;
32533;SDS011;18973;48.580;8.912;2023-08-12T15:50:22;2.72;;;2.28;;
32533;SDS011;18973;48.580;8.912;2023-08-12T15:52:48;5.25;;;2.50;;
32533;SDS011;18973;48.580;8.912;2023-08-12T15:55:14;3.90;;;2.55;;
32533;SDS011;18973;48.580;8.912;2023-08-12T15:57:39;3.83;;;2.80;;
32533;SDS011;18973;48.580;8.912;2023-08-12T16:00:05;5.25;;;2.53;;
32533;SDS011;18973;48.580;8.912;2023-08-12T16:02:33;4.45;;;2.30;;
32533;SDS011;18973;48.580;8.912;2023-08-12T16:04:59;4.22;;;2.60;;
32533;SDS011;18973;48.580;8.912;2023-08-12T16:07:25;3.33;;;2.50;;
32533;SDS011;18973;48.580;8.912;2023-08-12T16:09:50;5.35;;;2.72;;
32533;SDS011;18973;48.580;8.912;2023-08-12T16:12:16;4.03;;;2.58;;
32533;SDS011;18973;48.580;8.912;2023-08-12T16:14:44;22.55;;;11.38;;
32533;SDS011;18973;48.580;8.912;2023-08-12T16:17:10;33.17;;;21.58;;
32533;SDS011;18973;48.580;8.912;2023-08-12T16:19:36;10.68;;;7.30;;
32533;SDS011;18973;48.580;8.912;2023-08-12T16:22:01;9.93;;;4.05;;
32533;SDS011;18973;48.580;8.912;2023-08-12T16:24:27;12.85;;;4.53;;
32533;SDS011;18973;48.580;8.912;2023-08-12T16:26:53;7.60;;;4.88;;
32533;SDS011;18973;48.580;8.912;2023-08-12T16:29:19;11.85;;;4.43;;
32533;SDS011;18973;48.580;8.912;2023-08-12T16:31:45;14.02;;;5.20;;
32533;SDS011;18973;48.580;8.912;2023-08-12T16:34:10;11.63;;;5.63;;